sensor_id;sensor_type;location;lat;lon;timestamp;temperature;humidity
7000;DHT22;3540;53.242;10.408;2024-02-26T00:00:34;1.10;99.90
7000;DHT22;3540;53.242;10.408;2024-02-26T00:03:01;1.10;99.90
7000;DHT22;3540;53.242;10.408;2024-02-26T00:05:26;1.10;99.90
7000;DHT22;3540;53.242;10.408;2024-02-26T00:07:52;1.00;99.90
7000;DHT22;3540;53.242;10.408;2024-02-26T00:10:18;1.00;99.90
7000;DHT22;3540;53.242;10.408;2024-02-26T00:12:44;0.90;99.90
7000;DHT22;3540;53.242;10.408;2024-02-26T00:15:10;0.90;99.90
7000;DHT22;3540;53.242;10.408;2024-02-26T00:17:36;0.90;99.90
7000;DHT22;3540;53.242;10.408;2024-02-26T00:20:03;0.90;99.90
7000;DHT22;3540;53.242;10.408;2024-02-26T00:22:30;0.90;99.90
7000;DHT22;3540;53.242;10.408;2024-02-26T00:24:56;0.80;99.90
7000;DHT22;3540;53.242;10.408;2024-02-26T00:27:22;0.80;99.90
7000;DHT22;3540;53.242;10.408;2024-02-26T00:29:47;0.80;99.90
7000;DHT22;3540;53.242;10.408;2024-02-26T00:32:14;0.70;99.90
7000;DHT22;3540;53.242;10.408;2024-02-26T00:34:39;0.70;99.90
7000;DHT22;3540;53.242;10.408;2024-02-26T00:37:05;0.70;99.90
7000;DHT22;3540;53.242;10.408;2024-02-26T00:39:31;0.70;99.90
7000;DHT22;3540;53.242;10.408;2024-02-26T00:41:56;0.70;99.90
7000;DHT22;3540;53.242;10.408;2024-02-26T00:44:22;0.70;99.90
7000;DHT22;3540;53.242;10.408;2024-02-26T00:46:48;0.60;99.90
7000;DHT22;3540;53.242;10.408;2024-02-26T00:49:13;0.60;99.90
7000;DHT22;3540;53.242;10.408;2024-02-26T00:51:39;0.50;99.90
7000;DHT22;3540;53.242;10.408;2024-02-26T00:54:04;0.50;99.90
7000;DHT22;3540;53.242;10.408;2024-02-26T00:56:30;0.50;99.90
7000;DHT22;3540;53.242;10.408;2024-02-26T00:58:56;0.50;99.90
7000;DHT22;3540;53.242;10.408;2024-02-26T01:01:21;0.50;99.90
7000;DHT22;3540;53.242;10.408;2024-02-26T01:03:47;0.40;99.90
7000;DHT22;3540;53.242;10.408;2024-02-26T01:06:12;0.40;99.90
7000;DHT22;3540;53.242;10.408;2024-02-26T01:08:38;0.30;99.90
7000;DHT22;3540;53.242;10.408;2024-02-26T01:11:04;0.30;99.90
7000;DHT22;3540;53.242;10.408;2024-02-26T01:13:30;0.30;99.90
7000;DHT22;3540;53.242;10.408;2024-02-26T01:15:56;0.20;99.90
7000;DHT22;3540;53.242;10.408;2024-02-26T01:18:21;0.20;99.90
7000;DHT22;3540;53.242;10.408;2024-02-26T01:20:47;0.10;99.90
7000;DHT22;3540;53.242;10.408;2024-02-26T01:23:13;0.10;99.90
7000;DHT22;3540;53.242;10.408;2024-02-26T01:25:39;0.10;99.90
7000;DHT22;3540;53.242;10.408;2024-02-26T01:28:05;0.10;99.90
7000;DHT22;3540;53.242;10.408;2024-02-26T01:30:31;0.00;99.90
7000;DHT22;3540;53.242;10.408;2024-02-26T01:32:57;0.10;99.90
7000;DHT22;3540;53.242;10.408;2024-02-26T01:35:23;0.10;99.90
7000;DHT22;3540;53.242;10.408;2024-02-26T01:37:48;0.10;99.90
7000;DHT22;3540;53.242;10.408;2024-02-26T01:40:14;0.10;99.90
7000;DHT22;3540;53.242;10.408;2024-02-26T01:42:45;0.10;99.90
7000;DHT22;3540;53.242;10.408;2024-02-26T01:45:14;0.00;99.90
7000;DHT22;3540;53.242;10.408;2024-02-26T01:47:41;0.00;99.90
7000;DHT22;3540;53.242;10.408;2024-02-26T01:50:08;0.10;99.90
7000;DHT22;3540;53.242;10.408;2024-02-26T01:52:34;0.10;99.90
7000;DHT22;3540;53.242;10.408;2024-02-26T01:55:00;0.10;99.90
7000;DHT22;3540;53.242;10.408;2024-02-26T01:57:27;0.10;99.90
7000;DHT22;3540;53.242;10.408;2024-02-26T01:59:53;0.10;99.90
7000;DHT22;3540;53.242;10.408;2024-02-26T02:02:19;0.10;99.90
7000;DHT22;3540;53.242;10.408;2024-02-26T02:04:46;0.00;99.90
7000;DHT22;3540;53.242;10.408;2024-02-26T02:07:12;0.00;99.90
7000;DHT22;3540;53.242;10.408;2024-02-26T02:09:38;0.00;99.90
7000;DHT22;3540;53.242;10.408;2024-02-26T02:12:04;-0.10;99.90
7000;DHT22;3540;53.242;10.408;2024-02-26T02:14:31;-0.10;99.90
7000;DHT22;3540;53.242;10.408;2024-02-26T02:16:57;-0.20;99.90
7000;DHT22;3540;53.242;10.408;2024-02-26T02:19:22;-0.20;99.90
7000;DHT22;3540;53.242;10.408;2024-02-26T02:21:48;-0.20;99.90
7000;DHT22;3540;53.242;10.408;2024-02-26T02:24:14;-0.20;99.90
7000;DHT22;3540;53.242;10.408;2024-02-26T02:26:39;-0.20;99.90
7000;DHT22;3540;53.242;10.408;2024-02-26T02:29:06;-0.20;99.90
7000;DHT22;3540;53.242;10.408;2024-02-26T02:31:32;-0.20;99.90
7000;DHT22;3540;53.242;10.408;2024-02-26T02:33:58;-0.20;99.90
7000;DHT22;3540;53.242;10.408;2024-02-26T02:36:24;-0.20;99.90
7000;DHT22;3540;53.242;10.408;2024-02-26T02:38:51;-0.20;99.90
7000;DHT22;3540;53.242;10.408;2024-02-26T02:41:16;-0.30;99.90
7000;DHT22;3540;53.242;10.408;2024-02-26T02:43:42;-0.30;99.90
7000;DHT22;3540;53.242;10.408;2024-02-26T02:46:08;-0.30;99.90
7000;DHT22;3540;53.242;10.408;2024-02-26T02:48:33;-0.30;99.90
7000;DHT22;3540;53.242;10.408;2024-02-26T02:50:59;-0.30;99.90
7000;DHT22;3540;53.242;10.408;2024-02-26T02:53:25;-0.30;99.90
7000;DHT22;3540;53.242;10.408;2024-02-26T02:55:50;-0.30;99.90
7000;DHT22;3540;53.242;10.408;2024-02-26T02:58:16;-0.30;99.90
7000;DHT22;3540;53.242;10.408;2024-02-26T03:00:41;-0.30;99.90
7000;DHT22;3540;53.242;10.408;2024-02-26T03:03:07;-0.30;99.90
7000;DHT22;3540;53.242;10.408;2024-02-26T03:05:33;-0.40;99.90
7000;DHT22;3540;53.242;10.408;2024-02-26T03:07:58;-0.40;99.90
7000;DHT22;3540;53.242;10.408;2024-02-26T03:10:24;-0.40;99.90
7000;DHT22;3540;53.242;10.408;2024-02-26T03:12:49;-0.40;99.90
7000;DHT22;3540;53.242;10.408;2024-02-26T03:15:15;-0.50;99.90
7000;DHT22;3540;53.242;10.408;2024-02-26T03:17:41;-0.50;99.90
7000;DHT22;3540;53.242;10.408;2024-02-26T03:20:08;-0.50;99.90
7000;DHT22;3540;53.242;10.408;2024-02-26T03:22:35;-0.50;99.90
7000;DHT22;3540;53.242;10.408;2024-02-26T03:25:00;-0.60;99.90
7000;DHT22;3540;53.242;10.408;2024-02-26T03:27:26;-0.50;99.90
7000;DHT22;3540;53.242;10.408;2024-02-26T03:29:52;-0.60;99.90
7000;DHT22;3540;53.242;10.408;2024-02-26T03:32:18;-0.60;99.90
7000;DHT22;3540;53.242;10.408;2024-02-26T03:34:43;-0.60;99.90
7000;DHT22;3540;53.242;10.408;2024-02-26T03:37:09;-0.60;99.90
7000;DHT22;3540;53.242;10.408;2024-02-26T03:39:36;-0.60;99.90
7000;DHT22;3540;53.242;10.408;2024-02-26T03:42:02;-0.70;99.90
7000;DHT22;3540;53.242;10.408;2024-02-26T03:44:28;-0.70;99.90
7000;DHT22;3540;53.242;10.408;2024-02-26T03:46:53;-0.60;99.90
7000;DHT22;3540;53.242;10.408;2024-02-26T03:49:19;-0.60;99.90
7000;DHT22;3540;53.242;10.408;2024-02-26T03:51:44;-0.70;99.90
7000;DHT22;3540;53.242;10.408;2024-02-26T03:54:10;-0.70;99.90
7000;DHT22;3540;53.242;10.408;2024-02-26T03:56:36;-0.70;99.90
7000;DHT22;3540;53.242;10.408;2024-02-26T03:59:01;-0.70;99.90
7000;DHT22;3540;53.242;10.408;2024-02-26T04:01:28;-0.70;99.90
7000;DHT22;3540;53.242;10.408;2024-02-26T04:03:55;-0.70;99.90
7000;DHT22;3540;53.242;10.408;2024-02-26T04:06:20;-0.70;99.90
7000;DHT22;3540;53.242;10.408;2024-02-26T04:08:49;-0.70;99.90
7000;DHT22;3540;53.242;10.408;2024-02-26T04:11:15;-0.70;99.90
7000;DHT22;3540;53.242;10.408;2024-02-26T04:13:44;-0.70;99.90
7000;DHT22;3540;53.242;10.408;2024-02-26T04:16:15;-0.70;99.90
7000;DHT22;3540;53.242;10.408;2024-02-26T04:18:42;-0.70;99.90
7000;DHT22;3540;53.242;10.408;2024-02-26T04:21:07;-0.70;99.90
7000;DHT22;3540;53.242;10.408;2024-02-26T04:23:33;-0.70;99.90
7000;DHT22;3540;53.242;10.408;2024-02-26T04:25:58;-0.70;99.90
7000;DHT22;3540;53.242;10.408;2024-02-26T04:28:24;-0.70;99.90
7000;DHT22;3540;53.242;10.408;2024-02-26T04:30:55;-0.70;99.90
7000;DHT22;3540;53.242;10.408;2024-02-26T04:33:20;-0.70;99.90
7000;DHT22;3540;53.242;10.408;2024-02-26T04:35:46;-0.70;99.90
7000;DHT22;3540;53.242;10.408;2024-02-26T04:38:12;-0.70;99.90
7000;DHT22;3540;53.242;10.408;2024-02-26T04:40:37;-0.60;99.90
7000;DHT22;3540;53.242;10.408;2024-02-26T04:43:03;-0.70;99.90
7000;DHT22;3540;53.242;10.408;2024-02-26T04:45:29;-0.70;99.90
7000;DHT22;3540;53.242;10.408;2024-02-26T04:47:54;-0.70;99.90
7000;DHT22;3540;53.242;10.408;2024-02-26T04:50:20;-0.70;99.90
7000;DHT22;3540;53.242;10.408;2024-02-26T04:52:46;-0.70;99.90
7000;DHT22;3540;53.242;10.408;2024-02-26T04:55:11;-0.70;99.90
7000;DHT22;3540;53.242;10.408;2024-02-26T04:57:37;-0.70;99.90
7000;DHT22;3540;53.242;10.408;2024-02-26T05:00:04;-0.70;99.90
7000;DHT22;3540;53.242;10.408;2024-02-26T05:02:30;-0.70;99.90
7000;DHT22;3540;53.242;10.408;2024-02-26T05:04:57;-0.70;99.90
7000;DHT22;3540;53.242;10.408;2024-02-26T05:07:23;-0.60;99.90
7000;DHT22;3540;53.242;10.408;2024-02-26T05:09:49;-0.70;99.90
7000;DHT22;3540;53.242;10.408;2024-02-26T05:12:17;-0.70;99.90
7000;DHT22;3540;53.242;10.408;2024-02-26T05:14:43;-0.70;99.90
7000;DHT22;3540;53.242;10.408;2024-02-26T05:17:08;-0.60;99.90
7000;DHT22;3540;53.242;10.408;2024-02-26T05:19:34;-0.60;99.90
7000;DHT22;3540;53.242;10.408;2024-02-26T05:21:59;-0.50;99.90
7000;DHT22;3540;53.242;10.408;2024-02-26T05:24:25;-0.50;99.90
7000;DHT22;3540;53.242;10.408;2024-02-26T05:26:51;-0.50;99.90
7000;DHT22;3540;53.242;10.408;2024-02-26T05:29:16;-0.40;99.90
7000;DHT22;3540;53.242;10.408;2024-02-26T05:31:42;-0.40;99.90
7000;DHT22;3540;53.242;10.408;2024-02-26T05:34:08;-0.40;99.90
7000;DHT22;3540;53.242;10.408;2024-02-26T05:36:34;-0.30;99.90
7000;DHT22;3540;53.242;10.408;2024-02-26T05:39:00;-0.30;99.90
7000;DHT22;3540;53.242;10.408;2024-02-26T05:41:26;-0.30;99.90
7000;DHT22;3540;53.242;10.408;2024-02-26T05:43:55;-0.30;99.90
7000;DHT22;3540;53.242;10.408;2024-02-26T05:46:21;-0.30;99.90
7000;DHT22;3540;53.242;10.408;2024-02-26T05:48:49;-0.30;99.90
7000;DHT22;3540;53.242;10.408;2024-02-26T05:51:14;-0.20;99.90
7000;DHT22;3540;53.242;10.408;2024-02-26T05:53:41;-0.20;99.90
7000;DHT22;3540;53.242;10.408;2024-02-26T05:56:06;-0.20;99.90
7000;DHT22;3540;53.242;10.408;2024-02-26T05:58:32;-0.20;99.90
7000;DHT22;3540;53.242;10.408;2024-02-26T06:00:58;-0.10;99.90
7000;DHT22;3540;53.242;10.408;2024-02-26T06:03:23;-0.10;99.90
7000;DHT22;3540;53.242;10.408;2024-02-26T06:05:49;0.00;99.90
7000;DHT22;3540;53.242;10.408;2024-02-26T06:08:14;0.00;99.90
7000;DHT22;3540;53.242;10.408;2024-02-26T06:10:40;0.10;99.90
7000;DHT22;3540;53.242;10.408;2024-02-26T06:13:06;0.10;99.90
7000;DHT22;3540;53.242;10.408;2024-02-26T06:15:31;0.20;99.90
7000;DHT22;3540;53.242;10.408;2024-02-26T06:17:57;0.20;99.90
7000;DHT22;3540;53.242;10.408;2024-02-26T06:20:23;0.30;99.90
7000;DHT22;3540;53.242;10.408;2024-02-26T06:22:48;0.30;99.90
7000;DHT22;3540;53.242;10.408;2024-02-26T06:25:14;0.40;99.90
7000;DHT22;3540;53.242;10.408;2024-02-26T06:27:40;0.40;99.90
7000;DHT22;3540;53.242;10.408;2024-02-26T06:30:06;0.40;99.90
7000;DHT22;3540;53.242;10.408;2024-02-26T06:32:32;0.50;99.90
7000;DHT22;3540;53.242;10.408;2024-02-26T06:34:57;0.50;99.90
7000;DHT22;3540;53.242;10.408;2024-02-26T06:37:23;0.60;99.90
7000;DHT22;3540;53.242;10.408;2024-02-26T06:39:48;0.70;99.90
7000;DHT22;3540;53.242;10.408;2024-02-26T06:42:14;0.70;99.90
7000;DHT22;3540;53.242;10.408;2024-02-26T06:44:40;0.70;99.90
7000;DHT22;3540;53.242;10.408;2024-02-26T06:47:05;0.70;99.90
7000;DHT22;3540;53.242;10.408;2024-02-26T06:49:31;0.70;99.90
7000;DHT22;3540;53.242;10.408;2024-02-26T06:51:57;0.70;99.90
7000;DHT22;3540;53.242;10.408;2024-02-26T06:54:22;0.70;99.90
7000;DHT22;3540;53.242;10.408;2024-02-26T06:56:48;0.80;99.90
7000;DHT22;3540;53.242;10.408;2024-02-26T06:59:13;0.80;99.90
7000;DHT22;3540;53.242;10.408;2024-02-26T07:01:42;0.80;99.90
7000;DHT22;3540;53.242;10.408;2024-02-26T07:04:08;0.80;99.90
7000;DHT22;3540;53.242;10.408;2024-02-26T07:06:36;0.90;99.90
7000;DHT22;3540;53.242;10.408;2024-02-26T07:09:02;0.90;99.90
7000;DHT22;3540;53.242;10.408;2024-02-26T07:11:27;0.90;99.90
7000;DHT22;3540;53.242;10.408;2024-02-26T07:13:53;1.00;99.90
7000;DHT22;3540;53.242;10.408;2024-02-26T07:16:19;1.00;99.90
7000;DHT22;3540;53.242;10.408;2024-02-26T07:18:44;1.00;99.90
7000;DHT22;3540;53.242;10.408;2024-02-26T07:21:11;1.10;99.90
7000;DHT22;3540;53.242;10.408;2024-02-26T07:23:37;1.10;99.90
7000;DHT22;3540;53.242;10.408;2024-02-26T07:26:03;1.10;99.90
7000;DHT22;3540;53.242;10.408;2024-02-26T07:28:29;1.20;99.90
7000;DHT22;3540;53.242;10.408;2024-02-26T07:30:54;1.20;99.90
7000;DHT22;3540;53.242;10.408;2024-02-26T07:33:20;1.20;99.90
7000;DHT22;3540;53.242;10.408;2024-02-26T07:35:46;1.20;99.90
7000;DHT22;3540;53.242;10.408;2024-02-26T07:38:11;1.30;99.90
7000;DHT22;3540;53.242;10.408;2024-02-26T07:40:38;1.40;99.90
7000;DHT22;3540;53.242;10.408;2024-02-26T07:43:04;1.50;99.90
7000;DHT22;3540;53.242;10.408;2024-02-26T07:45:30;1.50;99.90
7000;DHT22;3540;53.242;10.408;2024-02-26T07:47:55;1.50;99.90
7000;DHT22;3540;53.242;10.408;2024-02-26T07:50:21;1.40;99.90
7000;DHT22;3540;53.242;10.408;2024-02-26T07:52:46;1.50;99.90
7000;DHT22;3540;53.242;10.408;2024-02-26T07:55:12;1.60;99.90
7000;DHT22;3540;53.242;10.408;2024-02-26T07:57:42;1.50;99.90
7000;DHT22;3540;53.242;10.408;2024-02-26T08:00:09;1.50;99.90
7000;DHT22;3540;53.242;10.408;2024-02-26T08:02:36;1.60;99.90
7000;DHT22;3540;53.242;10.408;2024-02-26T08:05:01;1.70;99.90
7000;DHT22;3540;53.242;10.408;2024-02-26T08:07:27;1.80;99.90
7000;DHT22;3540;53.242;10.408;2024-02-26T08:09:54;1.80;99.90
7000;DHT22;3540;53.242;10.408;2024-02-26T08:12:19;1.90;99.90
7000;DHT22;3540;53.242;10.408;2024-02-26T08:14:45;2.00;99.90
7000;DHT22;3540;53.242;10.408;2024-02-26T08:17:10;2.00;99.90
7000;DHT22;3540;53.242;10.408;2024-02-26T08:19:36;2.10;99.90
7000;DHT22;3540;53.242;10.408;2024-02-26T08:22:02;2.10;99.90
7000;DHT22;3540;53.242;10.408;2024-02-26T08:24:28;2.20;99.90
7000;DHT22;3540;53.242;10.408;2024-02-26T08:26:54;2.20;99.90
7000;DHT22;3540;53.242;10.408;2024-02-26T08:29:19;2.30;99.90
7000;DHT22;3540;53.242;10.408;2024-02-26T08:31:45;2.30;99.90
7000;DHT22;3540;53.242;10.408;2024-02-26T08:34:11;2.30;99.90
7000;DHT22;3540;53.242;10.408;2024-02-26T08:36:36;2.40;99.90
7000;DHT22;3540;53.242;10.408;2024-02-26T08:39:02;2.30;99.90
7000;DHT22;3540;53.242;10.408;2024-02-26T08:41:28;2.30;99.90
7000;DHT22;3540;53.242;10.408;2024-02-26T08:43:54;2.40;99.90
7000;DHT22;3540;53.242;10.408;2024-02-26T08:46:20;2.50;99.90
7000;DHT22;3540;53.242;10.408;2024-02-26T08:48:46;2.70;99.90
7000;DHT22;3540;53.242;10.408;2024-02-26T08:51:11;2.80;99.90
7000;DHT22;3540;53.242;10.408;2024-02-26T08:53:38;2.60;99.90
7000;DHT22;3540;53.242;10.408;2024-02-26T08:56:04;2.70;99.90
7000;DHT22;3540;53.242;10.408;2024-02-26T08:58:30;2.70;99.90
7000;DHT22;3540;53.242;10.408;2024-02-26T09:00:56;2.70;99.90
7000;DHT22;3540;53.242;10.408;2024-02-26T09:03:22;2.60;99.90
7000;DHT22;3540;53.242;10.408;2024-02-26T09:05:48;2.60;99.90
7000;DHT22;3540;53.242;10.408;2024-02-26T09:08:14;2.70;99.90
7000;DHT22;3540;53.242;10.408;2024-02-26T09:10:40;2.80;99.90
7000;DHT22;3540;53.242;10.408;2024-02-26T09:13:05;2.80;99.90
7000;DHT22;3540;53.242;10.408;2024-02-26T09:15:31;2.90;99.90
7000;DHT22;3540;53.242;10.408;2024-02-26T09:17:57;2.90;99.90
7000;DHT22;3540;53.242;10.408;2024-02-26T09:20:23;2.90;99.90
7000;DHT22;3540;53.242;10.408;2024-02-26T09:22:49;2.90;99.90
7000;DHT22;3540;53.242;10.408;2024-02-26T09:25:16;3.00;99.90
7000;DHT22;3540;53.242;10.408;2024-02-26T09:27:42;2.90;99.90
7000;DHT22;3540;53.242;10.408;2024-02-26T09:30:12;2.90;99.90
7000;DHT22;3540;53.242;10.408;2024-02-26T09:32:38;2.90;99.90
7000;DHT22;3540;53.242;10.408;2024-02-26T09:35:05;2.90;99.90
7000;DHT22;3540;53.242;10.408;2024-02-26T09:37:31;3.10;99.90
7000;DHT22;3540;53.242;10.408;2024-02-26T09:39:57;3.10;99.90
7000;DHT22;3540;53.242;10.408;2024-02-26T09:42:25;3.20;99.90
7000;DHT22;3540;53.242;10.408;2024-02-26T09:44:53;3.20;99.90
7000;DHT22;3540;53.242;10.408;2024-02-26T09:47:20;3.30;99.90
7000;DHT22;3540;53.242;10.408;2024-02-26T09:49:47;3.30;99.90
7000;DHT22;3540;53.242;10.408;2024-02-26T09:52:15;3.30;99.90
7000;DHT22;3540;53.242;10.408;2024-02-26T09:54:41;3.40;99.90
7000;DHT22;3540;53.242;10.408;2024-02-26T09:57:09;3.40;99.90
7000;DHT22;3540;53.242;10.408;2024-02-26T09:59:41;3.50;99.90
7000;DHT22;3540;53.242;10.408;2024-02-26T10:02:12;3.50;99.90
7000;DHT22;3540;53.242;10.408;2024-02-26T10:04:42;3.70;99.90
7000;DHT22;3540;53.242;10.408;2024-02-26T10:07:12;3.60;99.90
7000;DHT22;3540;53.242;10.408;2024-02-26T10:09:39;3.70;99.90
7000;DHT22;3540;53.242;10.408;2024-02-26T10:12:05;3.80;99.90
7000;DHT22;3540;53.242;10.408;2024-02-26T10:14:32;4.00;99.90
7000;DHT22;3540;53.242;10.408;2024-02-26T10:16:59;4.00;99.90
7000;DHT22;3540;53.242;10.408;2024-02-26T10:19:30;4.00;99.90
7000;DHT22;3540;53.242;10.408;2024-02-26T10:22:00;4.10;99.90
7000;DHT22;3540;53.242;10.408;2024-02-26T10:24:27;4.30;99.90
7000;DHT22;3540;53.242;10.408;2024-02-26T10:26:54;4.40;99.90
7000;DHT22;3540;53.242;10.408;2024-02-26T10:29:21;4.40;99.90
7000;DHT22;3540;53.242;10.408;2024-02-26T10:31:47;4.30;99.90
7000;DHT22;3540;53.242;10.408;2024-02-26T10:34:15;4.40;99.90
7000;DHT22;3540;53.242;10.408;2024-02-26T10:36:41;4.50;99.90
7000;DHT22;3540;53.242;10.408;2024-02-26T10:39:07;4.70;99.90
7000;DHT22;3540;53.242;10.408;2024-02-26T10:41:33;4.80;99.90
7000;DHT22;3540;53.242;10.408;2024-02-26T10:44:00;4.90;99.90
7000;DHT22;3540;53.242;10.408;2024-02-26T10:46:26;5.00;99.90
7000;DHT22;3540;53.242;10.408;2024-02-26T10:48:52;5.00;99.90
7000;DHT22;3540;53.242;10.408;2024-02-26T10:51:37;5.20;99.90
7000;DHT22;3540;53.242;10.408;2024-02-26T10:54:05;5.50;99.90
7000;DHT22;3540;53.242;10.408;2024-02-26T10:56:34;5.60;99.90
7000;DHT22;3540;53.242;10.408;2024-02-26T10:59:00;5.50;99.90
7000;DHT22;3540;53.242;10.408;2024-02-26T11:01:27;5.70;99.90
7000;DHT22;3540;53.242;10.408;2024-02-26T11:03:58;5.80;99.90
7000;DHT22;3540;53.242;10.408;2024-02-26T11:06:26;6.00;99.90
7000;DHT22;3540;53.242;10.408;2024-02-26T11:08:53;5.90;99.90
7000;DHT22;3540;53.242;10.408;2024-02-26T11:11:20;6.00;99.90
7000;DHT22;3540;53.242;10.408;2024-02-26T11:13:47;5.90;99.90
7000;DHT22;3540;53.242;10.408;2024-02-26T11:16:21;6.10;99.90
7000;DHT22;3540;53.242;10.408;2024-02-26T11:18:47;6.20;99.90
7000;DHT22;3540;53.242;10.408;2024-02-26T11:21:16;6.10;99.90
7000;DHT22;3540;53.242;10.408;2024-02-26T11:23:44;6.40;99.90
7000;DHT22;3540;53.242;10.408;2024-02-26T11:26:11;6.60;99.90
7000;DHT22;3540;53.242;10.408;2024-02-26T11:28:39;6.80;99.90
7000;DHT22;3540;53.242;10.408;2024-02-26T11:31:05;6.70;99.90
7000;DHT22;3540;53.242;10.408;2024-02-26T11:33:33;6.90;99.90
7000;DHT22;3540;53.242;10.408;2024-02-26T11:36:02;6.60;99.90
7000;DHT22;3540;53.242;10.408;2024-02-26T11:38:28;6.90;99.90
7000;DHT22;3540;53.242;10.408;2024-02-26T11:40:54;7.00;99.90
7000;DHT22;3540;53.242;10.408;2024-02-26T11:43:33;7.20;99.90
7000;DHT22;3540;53.242;10.408;2024-02-26T11:46:31;7.30;99.90
7000;DHT22;3540;53.242;10.408;2024-02-26T11:51:53;7.00;99.90
7000;DHT22;3540;53.242;10.408;2024-02-26T11:54:47;7.20;99.90
7000;DHT22;3540;53.242;10.408;2024-02-26T12:00:14;7.40;99.90
7000;DHT22;3540;53.242;10.408;2024-02-26T12:07:39;7.20;99.90
7000;DHT22;3540;53.242;10.408;2024-02-26T12:15:56;7.50;99.90
7000;DHT22;3540;53.242;10.408;2024-02-26T12:18:22;7.70;99.90
7000;DHT22;3540;53.242;10.408;2024-02-26T12:21:02;7.70;99.90
7000;DHT22;3540;53.242;10.408;2024-02-26T12:23:29;7.80;99.90
7000;DHT22;3540;53.242;10.408;2024-02-26T12:26:01;7.40;99.90
7000;DHT22;3540;53.242;10.408;2024-02-26T12:28:29;7.60;99.90
7000;DHT22;3540;53.242;10.408;2024-02-26T12:30:54;7.90;99.90
7000;DHT22;3540;53.242;10.408;2024-02-26T12:33:20;7.80;99.90
7000;DHT22;3540;53.242;10.408;2024-02-26T12:35:46;8.00;99.90
7000;DHT22;3540;53.242;10.408;2024-02-26T12:38:14;7.90;99.90
7000;DHT22;3540;53.242;10.408;2024-02-26T12:40:40;7.80;99.90
7000;DHT22;3540;53.242;10.408;2024-02-26T12:43:07;7.80;99.90
7000;DHT22;3540;53.242;10.408;2024-02-26T12:45:42;8.00;99.90
7000;DHT22;3540;53.242;10.408;2024-02-26T12:48:10;7.90;99.90
7000;DHT22;3540;53.242;10.408;2024-02-26T12:50:37;7.80;99.90
7000;DHT22;3540;53.242;10.408;2024-02-26T12:53:03;7.90;99.90
7000;DHT22;3540;53.242;10.408;2024-02-26T12:55:29;8.10;99.90
7000;DHT22;3540;53.242;10.408;2024-02-26T12:57:55;8.20;99.90
7000;DHT22;3540;53.242;10.408;2024-02-26T13:00:26;8.40;99.90
7000;DHT22;3540;53.242;10.408;2024-02-26T13:02:53;8.30;99.90
7000;DHT22;3540;53.242;10.408;2024-02-26T13:05:21;8.30;99.90
7000;DHT22;3540;53.242;10.408;2024-02-26T13:07:47;8.30;99.90
7000;DHT22;3540;53.242;10.408;2024-02-26T13:10:13;8.40;99.90
7000;DHT22;3540;53.242;10.408;2024-02-26T13:12:47;8.60;99.90
7000;DHT22;3540;53.242;10.408;2024-02-26T13:15:17;8.70;99.90
7000;DHT22;3540;53.242;10.408;2024-02-26T13:17:44;8.90;99.90
7000;DHT22;3540;53.242;10.408;2024-02-26T13:20:10;9.00;99.90
7000;DHT22;3540;53.242;10.408;2024-02-26T13:22:36;9.10;99.90
7000;DHT22;3540;53.242;10.408;2024-02-26T13:25:02;8.70;99.90
7000;DHT22;3540;53.242;10.408;2024-02-26T13:27:28;8.90;99.90
7000;DHT22;3540;53.242;10.408;2024-02-26T13:30:11;8.80;99.90
7000;DHT22;3540;53.242;10.408;2024-02-26T13:32:39;9.00;99.90
7000;DHT22;3540;53.242;10.408;2024-02-26T13:37:31;8.90;99.90
7000;DHT22;3540;53.242;10.408;2024-02-26T13:39:57;8.80;99.90
7000;DHT22;3540;53.242;10.408;2024-02-26T13:42:23;8.80;99.90
7000;DHT22;3540;53.242;10.408;2024-02-26T13:44:48;8.80;99.90
7000;DHT22;3540;53.242;10.408;2024-02-26T13:47:14;8.50;99.90
7000;DHT22;3540;53.242;10.408;2024-02-26T13:49:40;8.50;99.90
7000;DHT22;3540;53.242;10.408;2024-02-26T13:52:05;8.60;99.90
7000;DHT22;3540;53.242;10.408;2024-02-26T13:54:31;8.60;99.90
7000;DHT22;3540;53.242;10.408;2024-02-26T13:56:57;8.90;99.90
7000;DHT22;3540;53.242;10.408;2024-02-26T13:59:22;9.00;99.90
7000;DHT22;3540;53.242;10.408;2024-02-26T14:01:48;9.00;99.90
7000;DHT22;3540;53.242;10.408;2024-02-26T14:04:13;8.90;99.90
7000;DHT22;3540;53.242;10.408;2024-02-26T14:06:39;8.80;99.90
7000;DHT22;3540;53.242;10.408;2024-02-26T14:09:08;8.60;99.90
7000;DHT22;3540;53.242;10.408;2024-02-26T14:11:34;8.60;99.90
7000;DHT22;3540;53.242;10.408;2024-02-26T14:14:01;8.60;99.90
7000;DHT22;3540;53.242;10.408;2024-02-26T14:16:26;8.50;99.90
7000;DHT22;3540;53.242;10.408;2024-02-26T14:18:52;8.60;99.90
7000;DHT22;3540;53.242;10.408;2024-02-26T14:21:17;8.70;99.90
7000;DHT22;3540;53.242;10.408;2024-02-26T14:23:43;8.70;99.90
7000;DHT22;3540;53.242;10.408;2024-02-26T14:26:10;8.60;99.90
7000;DHT22;3540;53.242;10.408;2024-02-26T14:28:36;8.60;99.90
7000;DHT22;3540;53.242;10.408;2024-02-26T14:31:01;8.60;99.90
7000;DHT22;3540;53.242;10.408;2024-02-26T14:33:27;8.70;99.90
7000;DHT22;3540;53.242;10.408;2024-02-26T14:35:53;8.50;99.90
7000;DHT22;3540;53.242;10.408;2024-02-26T14:38:18;8.40;99.90
7000;DHT22;3540;53.242;10.408;2024-02-26T14:40:44;8.40;99.90
7000;DHT22;3540;53.242;10.408;2024-02-26T14:43:11;8.40;99.90
7000;DHT22;3540;53.242;10.408;2024-02-26T14:45:36;8.40;99.90
7000;DHT22;3540;53.242;10.408;2024-02-26T14:48:03;8.50;99.90
7000;DHT22;3540;53.242;10.408;2024-02-26T14:50:29;8.50;99.90
7000;DHT22;3540;53.242;10.408;2024-02-26T14:52:55;8.60;99.90
7000;DHT22;3540;53.242;10.408;2024-02-26T14:55:20;8.40;99.90
7000;DHT22;3540;53.242;10.408;2024-02-26T14:57:47;8.40;99.90
7000;DHT22;3540;53.242;10.408;2024-02-26T15:00:12;8.30;99.90
7000;DHT22;3540;53.242;10.408;2024-02-26T15:02:38;8.40;99.90
7000;DHT22;3540;53.242;10.408;2024-02-26T15:05:04;8.30;99.90
7000;DHT22;3540;53.242;10.408;2024-02-26T15:07:30;8.40;99.90
7000;DHT22;3540;53.242;10.408;2024-02-26T15:09:55;8.30;99.90
7000;DHT22;3540;53.242;10.408;2024-02-26T15:12:24;8.20;99.90
7000;DHT22;3540;53.242;10.408;2024-02-26T15:14:50;8.20;99.90
7000;DHT22;3540;53.242;10.408;2024-02-26T15:17:15;8.20;99.90
7000;DHT22;3540;53.242;10.408;2024-02-26T15:19:41;8.00;99.90
7000;DHT22;3540;53.242;10.408;2024-02-26T15:22:07;8.00;99.90
7000;DHT22;3540;53.242;10.408;2024-02-26T15:24:33;8.00;99.90
7000;DHT22;3540;53.242;10.408;2024-02-26T15:26:58;7.90;99.90
7000;DHT22;3540;53.242;10.408;2024-02-26T15:29:24;7.80;99.90
7000;DHT22;3540;53.242;10.408;2024-02-26T15:31:49;7.80;99.90
7000;DHT22;3540;53.242;10.408;2024-02-26T15:34:15;7.70;99.90
7000;DHT22;3540;53.242;10.408;2024-02-26T15:36:41;7.70;99.90
7000;DHT22;3540;53.242;10.408;2024-02-26T15:39:07;7.60;99.90
7000;DHT22;3540;53.242;10.408;2024-02-26T15:41:32;7.60;99.90
7000;DHT22;3540;53.242;10.408;2024-02-26T15:43:58;7.50;99.90
7000;DHT22;3540;53.242;10.408;2024-02-26T15:46:25;7.50;99.90
7000;DHT22;3540;53.242;10.408;2024-02-26T15:48:51;7.50;99.90
7000;DHT22;3540;53.242;10.408;2024-02-26T15:51:22;7.40;99.90
7000;DHT22;3540;53.242;10.408;2024-02-26T15:53:49;7.30;99.90
7000;DHT22;3540;53.242;10.408;2024-02-26T15:56:15;7.30;99.90
7000;DHT22;3540;53.242;10.408;2024-02-26T15:58:41;7.20;99.90
7000;DHT22;3540;53.242;10.408;2024-02-26T16:01:06;7.10;99.90
7000;DHT22;3540;53.242;10.408;2024-02-26T16:03:39;7.10;99.90
7000;DHT22;3540;53.242;10.408;2024-02-26T16:06:06;7.10;99.90
7000;DHT22;3540;53.242;10.408;2024-02-26T16:08:32;7.00;99.90
7000;DHT22;3540;53.242;10.408;2024-02-26T16:10:58;7.00;99.90